Annapolis, Illinois
Current Conditions -  °F | °C
As of 8:55 PM on Monday 22 Dec 2014 (Local Time) from KRSV Reporting Station
Overcast Overcast  
Wind Chill: 43°   Ceiling: 1700
Heat Index: 48°   Visibility: 10mi
Dew Point: 46°   Wind: 13mph
Humidity: 90%   Direction: 150°SSE
Pressure: 29.63"   Gusts: NA
Location:  39.14°N, 87.82°W
Report Text: KRSV 230255Z AUTO 15011KT 10SM OVC017 09/08 A2963 RMK AO2 60001 T00910075
Loading
Personal Weather Stations






























Interactive Weather Map New forecast layout! Learn more

10-Day Weather Forecast

Advertisements
Track Severe Weather on mobile